createdAt,value
2024-05-09T00:00:36.168Z,74.40
2024-05-09T00:03:08.227Z,74.30
2024-05-09T00:05:36.566Z,74.60
2024-05-09T00:08:04.122Z,74.70
2024-05-09T00:10:36.357Z,75.00
2024-05-09T00:13:05.794Z,75.20
2024-05-09T00:15:33.684Z,75.20
2024-05-09T00:18:03.502Z,75.20
2024-05-09T00:20:37.817Z,75.20
2024-05-09T00:23:08.723Z,75.60
2024-05-09T00:25:36.197Z,75.60
2024-05-09T00:28:03.217Z,75.90
2024-05-09T00:30:35.856Z,75.90
2024-05-09T00:33:05.338Z,75.90
2024-05-09T00:35:33.210Z,75.90
2024-05-09T00:38:02.367Z,75.90
2024-05-09T00:40:38.745Z,75.80
2024-05-09T00:43:08.328Z,76.40
2024-05-09T00:45:38.268Z,76.40
2024-05-09T00:48:17.618Z,76.60
2024-05-09T00:50:46.723Z,76.50
2024-05-09T00:53:14.957Z,76.60
2024-05-09T00:55:42.032Z,76.70
2024-05-09T00:58:12.757Z,76.70
2024-05-09T01:00:43.994Z,77.30
2024-05-09T01:03:14.350Z,76.80
2024-05-09T01:05:42.181Z,77.00
2024-05-09T01:08:09.804Z,77.10
2024-05-09T01:10:37.200Z,77.20
2024-05-09T01:13:04.649Z,77.70
2024-05-09T01:15:31.688Z,77.70
2024-05-09T01:18:00.716Z,77.70
2024-05-09T01:20:37.151Z,77.90
2024-05-09T01:23:09.297Z,78.00
2024-05-09T01:25:36.400Z,78.10
2024-05-09T01:28:03.297Z,78.40
2024-05-09T01:30:34.816Z,78.30
2024-05-09T01:33:08.919Z,78.50
2024-05-09T01:35:37.733Z,78.30
2024-05-09T01:38:04.855Z,78.50
2024-05-09T01:40:37.567Z,78.50
2024-05-09T01:43:07.349Z,78.50
2024-05-09T01:45:34.368Z,78.40
2024-05-09T01:48:01.750Z,78.30
2024-05-09T01:50:37.559Z,78.50
2024-05-09T01:53:08.302Z,78.70
2024-05-09T01:55:35.262Z,79.30
2024-05-09T01:58:02.016Z,79.00
2024-05-09T02:00:37.353Z,79.00
2024-05-09T02:03:14.400Z,79.10
2024-05-09T02:05:44.292Z,79.00
2024-05-09T02:08:15.507Z,79.10
2024-05-09T02:10:44.118Z,79.40
2024-05-09T02:13:10.999Z,79.60
2024-05-09T02:15:37.758Z,79.70
2024-05-09T02:18:04.952Z,79.80
2024-05-09T02:20:36.226Z,79.60
2024-05-09T02:23:05.224Z,79.80
2024-05-09T02:25:32.436Z,80.20
2024-05-09T02:27:59.528Z,80.40
2024-05-09T02:30:36.100Z,80.40
2024-05-09T02:33:07.796Z,80.40
2024-05-09T02:35:35.082Z,80.70
2024-05-09T02:38:02.049Z,80.80
2024-05-09T02:40:36.343Z,80.70
2024-05-09T02:43:06.092Z,80.90
2024-05-09T02:45:33.214Z,81.10
2024-05-09T02:48:00.716Z,81.10
2024-05-09T02:50:34.601Z,81.30
2024-05-09T02:53:06.032Z,81.40
2024-05-09T02:55:33.182Z,81.50
2024-05-09T02:58:00.135Z,81.40
2024-05-09T03:00:35.155Z,81.30
2024-05-09T03:03:08.349Z,81.40
2024-05-09T03:05:36.448Z,81.50
2024-05-09T03:08:03.690Z,81.50
2024-05-09T03:10:35.938Z,81.50
2024-05-09T03:13:12.976Z,81.70
2024-05-09T03:15:41.064Z,81.70
2024-05-09T03:18:08.575Z,81.80
2024-05-09T03:20:36.632Z,82.00
2024-05-09T03:23:05.069Z,82.10
2024-05-09T03:25:32.317Z,82.00
2024-05-09T03:27:59.500Z,82.00
2024-05-09T03:30:38.201Z,82.10
2024-05-09T03:33:13.584Z,82.20
2024-05-09T03:35:41.776Z,82.30
2024-05-09T03:38:08.846Z,82.50
2024-05-09T03:40:35.794Z,82.50
2024-05-09T03:43:02.499Z,82.50
2024-05-09T03:45:29.285Z,82.50
2024-05-09T03:47:56.275Z,82.50
2024-05-09T03:50:30.055Z,82.60
2024-05-09T03:53:01.499Z,82.70
2024-05-09T03:55:28.424Z,82.60
2024-05-09T03:57:55.200Z,82.80
2024-05-09T04:00:30.924Z,83.00
2024-05-09T04:03:05.089Z,83.10
2024-05-09T04:05:33.038Z,83.20
2024-05-09T04:07:59.969Z,82.90
2024-05-09T04:10:32.836Z,83.00
2024-05-09T04:13:01.451Z,83.10
2024-05-09T04:15:28.266Z,83.10
2024-05-09T04:17:55.335Z,83.10
2024-05-09T04:20:33.042Z,83.20
2024-05-09T04:23:05.722Z,83.30
2024-05-09T04:25:32.549Z,83.40
2024-05-09T04:27:59.328Z,83.50
2024-05-09T04:30:34.876Z,83.30
2024-05-09T04:33:06.943Z,83.40
2024-05-09T04:35:34.936Z,83.30
2024-05-09T04:38:01.846Z,83.40
2024-05-09T04:40:33.810Z,83.50
2024-05-09T04:43:03.790Z,83.60
2024-05-09T04:45:30.677Z,83.70
2024-05-09T04:47:57.926Z,83.60
2024-05-09T04:50:33.372Z,83.80
2024-05-09T04:53:04.413Z,83.70
2024-05-09T04:55:31.668Z,83.90
2024-05-09T04:57:58.472Z,83.90
2024-05-09T05:00:34.433Z,83.80
2024-05-09T05:03:10.607Z,83.80
2024-05-09T05:05:43.426Z,83.80
2024-05-09T05:08:12.374Z,83.70
2024-05-09T05:10:39.546Z,83.60
2024-05-09T05:13:16.553Z,83.80
2024-05-09T05:15:43.941Z,83.90
2024-05-09T05:18:10.963Z,83.60
2024-05-09T05:20:38.093Z,84.00
2024-05-09T05:23:06.909Z,83.50
2024-05-09T05:25:33.647Z,83.80
2024-05-09T05:28:00.445Z,83.60
2024-05-09T05:30:32.559Z,83.50
2024-05-09T05:33:01.381Z,83.20
2024-05-09T05:35:28.433Z,83.40
2024-05-09T05:37:55.348Z,83.30
2024-05-09T05:40:28.640Z,82.80
2024-05-09T05:43:05.996Z,82.70
2024-05-09T05:45:32.735Z,82.90
2024-05-09T05:48:00.289Z,83.30
2024-05-09T05:50:34.067Z,83.30
2024-05-09T05:53:03.410Z,83.30
2024-05-09T05:55:30.301Z,83.50
2024-05-09T05:57:57.089Z,83.80
2024-05-09T06:00:29.682Z,83.60
2024-05-09T06:03:04.437Z,83.00
2024-05-09T06:05:31.433Z,82.80
2024-05-09T06:07:58.287Z,83.00
2024-05-09T06:10:37.326Z,82.60
2024-05-09T06:13:06.968Z,82.70
2024-05-09T06:15:33.907Z,83.40
2024-05-09T06:18:01.050Z,83.30
2024-05-09T06:20:35.471Z,83.60
2024-05-09T06:23:05.298Z,83.00
2024-05-09T06:25:32.327Z,82.20
2024-05-09T06:27:59.946Z,82.40
2024-05-09T06:30:35.327Z,82.80
2024-05-09T06:33:11.310Z,82.10
2024-05-09T06:35:40.200Z,82.00
2024-05-09T06:38:09.550Z,81.80
2024-05-09T06:40:40.598Z,82.00
2024-05-09T06:43:12.585Z,81.70
2024-05-09T06:45:40.086Z,81.50
2024-05-09T06:48:07.565Z,82.10
2024-05-09T06:50:37.934Z,81.90
2024-05-09T06:53:06.710Z,81.20
2024-05-09T06:55:33.616Z,80.70
2024-05-09T06:58:00.404Z,80.90
2024-05-09T07:00:35.082Z,81.50
2024-05-09T07:03:13.405Z,81.60
2024-05-09T07:05:42.621Z,81.40
2024-05-09T07:08:09.685Z,81.10
2024-05-09T07:10:37.177Z,80.90
2024-05-09T07:13:10.759Z,80.10
2024-05-09T07:15:37.794Z,80.30
2024-05-09T07:18:10.610Z,79.50
2024-05-09T07:20:38.226Z,79.90
2024-05-09T07:23:05.234Z,79.90
2024-05-09T07:25:32.204Z,79.20
2024-05-09T07:27:59.288Z,79.20
2024-05-09T07:30:33.045Z,79.80
2024-05-09T07:33:02.322Z,79.30
2024-05-09T07:35:30.575Z,79.20
2024-05-09T07:37:57.631Z,78.80
2024-05-09T07:40:32.734Z,78.50
2024-05-09T07:43:06.951Z,78.60
2024-05-09T07:52:23.264Z,78.20
2024-05-09T07:53:38.950Z,78.50
2024-05-09T07:56:07.825Z,77.70
2024-05-09T07:58:34.957Z,77.70
2024-05-09T08:01:04.515Z,77.10
2024-05-09T08:03:31.592Z,77.70
2024-05-09T08:05:58.400Z,77.70
2024-05-09T08:08:25.145Z,77.80
2024-05-09T08:10:52.048Z,77.60
2024-05-09T08:13:18.983Z,77.80
2024-05-09T08:15:46.139Z,77.40
2024-05-09T08:18:13.130Z,77.30
2024-05-09T08:20:41.180Z,77.40
2024-05-09T08:23:07.995Z,76.20
2024-05-09T08:25:34.816Z,76.40
2024-05-09T08:28:03.575Z,76.10
2024-05-09T08:30:36.468Z,76.00
2024-05-09T08:33:05.356Z,76.10
2024-05-09T08:35:33.008Z,74.20
2024-05-09T08:38:00.047Z,73.70
2024-05-09T08:40:34.128Z,73.90
2024-05-09T08:43:06.806Z,74.10
2024-05-09T08:45:35.298Z,74.50
2024-05-09T08:48:05.974Z,75.20
2024-05-09T08:50:38.704Z,73.40
2024-05-09T08:53:07.166Z,71.10
2024-05-09T08:55:34.038Z,71.70
2024-05-09T08:58:01.337Z,71.80
2024-05-09T09:00:35.852Z,70.90
2024-05-09T09:03:05.861Z,71.40
2024-05-09T09:05:33.700Z,72.20
2024-05-09T09:08:00.836Z,71.40
2024-05-09T09:10:32.145Z,72.10
2024-05-09T09:13:04.743Z,71.70
2024-05-09T09:15:32.368Z,70.80
2024-05-09T09:18:00.196Z,69.60
2024-05-09T09:20:34.209Z,69.60
2024-05-09T09:23:04.231Z,69.70
2024-05-09T09:25:31.406Z,68.30
2024-05-09T09:27:58.618Z,67.10
2024-05-09T09:30:36.258Z,66.40
2024-05-09T09:33:13.901Z,66.30
2024-05-09T09:35:41.010Z,67.80
2024-05-09T09:38:08.297Z,67.90
2024-05-09T09:40:40.653Z,66.90
2024-05-09T09:43:16.966Z,66.80
2024-05-09T09:45:44.158Z,66.80
2024-05-09T09:48:12.212Z,66.20
2024-05-09T09:50:40.209Z,65.70
2024-05-09T09:53:07.547Z,65.40
2024-05-09T09:55:34.794Z,66.40
2024-05-09T09:58:03.551Z,65.80
2024-05-09T10:00:33.312Z,65.80
2024-05-09T10:03:01.342Z,66.20
2024-05-09T10:05:28.834Z,66.10
2024-05-09T10:07:56.410Z,64.50
2024-05-09T10:10:30.424Z,65.80
2024-05-09T10:13:06.348Z,63.00
2024-05-09T10:15:52.830Z,62.70
2024-05-09T10:18:28.213Z,62.30
2024-05-09T10:20:57.137Z,63.60
2024-05-09T10:23:30.705Z,62.40
2024-05-09T10:26:05.108Z,61.90
2024-05-09T10:28:33.219Z,63.40
2024-05-09T10:31:20.275Z,62.60
2024-05-09T10:33:51.948Z,60.50
2024-05-09T10:36:19.567Z,63.60
2024-05-09T10:38:46.525Z,64.00
2024-05-09T10:41:13.318Z,64.00
2024-05-09T10:43:43.627Z,61.20
2024-05-09T10:46:11.500Z,60.80
2024-05-09T10:48:38.940Z,59.10
2024-05-09T10:51:05.921Z,60.90
2024-05-09T10:53:39.723Z,60.80
2024-05-09T10:56:06.672Z,60.50
2024-05-09T10:58:33.423Z,61.00
2024-05-09T11:01:02.344Z,60.70
2024-05-09T11:03:31.242Z,57.50
2024-05-09T11:05:58.811Z,60.50
2024-05-09T11:08:25.773Z,57.80
2024-05-09T11:10:53.224Z,60.90
2024-05-09T11:13:26.841Z,60.20
2024-05-09T11:15:53.962Z,59.70
2024-05-09T11:18:24.975Z,59.50
2024-05-09T11:20:53.238Z,58.80
2024-05-09T11:23:21.902Z,57.40
2024-05-09T11:25:52.581Z,59.10
2024-05-09T11:28:19.851Z,59.20
2024-05-09T11:30:47.075Z,57.80
2024-05-09T11:33:14.863Z,56.60
2024-05-09T11:35:41.986Z,58.00
2024-05-09T11:38:08.943Z,58.50
2024-05-09T11:40:37.028Z,56.00
2024-05-09T11:43:04.036Z,56.60
2024-05-09T11:45:30.882Z,56.80
2024-05-09T11:47:57.750Z,56.40
2024-05-09T11:50:29.954Z,56.10
2024-05-09T11:53:01.486Z,54.90
2024-05-09T11:55:28.973Z,57.10
2024-05-09T11:58:15.212Z,55.90
2024-05-09T12:00:42.113Z,54.60
2024-05-09T12:03:09.063Z,55.50
2024-05-09T12:05:35.968Z,56.80
2024-05-09T12:08:02.929Z,56.60
2024-05-09T12:10:33.882Z,57.60
2024-05-09T12:13:04.884Z,55.60
2024-05-09T12:15:33.969Z,56.10
2024-05-09T12:18:03.595Z,58.10
2024-05-09T12:20:36.830Z,55.80
2024-05-09T12:23:06.479Z,54.60
2024-05-09T12:25:33.522Z,56.00
2024-05-09T12:28:00.626Z,56.90
2024-05-09T12:30:35.816Z,57.80
2024-05-09T12:33:06.769Z,54.70
2024-05-09T12:35:33.617Z,55.20
2024-05-09T12:38:00.487Z,56.10
2024-05-09T12:40:35.443Z,54.10
2024-05-09T12:43:06.149Z,54.60
2024-05-09T12:45:33.362Z,57.50
2024-05-09T12:48:00.555Z,57.90
2024-05-09T12:50:32.561Z,56.60
2024-05-09T12:53:01.562Z,55.40
2024-05-09T12:55:31.781Z,55.30
2024-05-09T12:58:04.316Z,57.60
2024-05-09T13:00:33.967Z,52.70
2024-05-09T13:03:01.660Z,56.00
2024-05-09T13:05:29.502Z,55.60
2024-05-09T13:07:57.137Z,57.80
2024-05-09T13:10:31.145Z,56.30
2024-05-09T13:13:00.794Z,54.80
2024-05-09T13:15:28.312Z,55.10
2024-05-09T13:17:57.930Z,56.30
2024-05-09T13:20:32.390Z,56.60
2024-05-09T13:23:01.994Z,57.00
2024-05-09T13:25:28.876Z,57.00
2024-05-09T13:27:56.218Z,56.60
2024-05-09T13:30:29.757Z,56.40
2024-05-09T13:33:05.615Z,53.20
2024-05-09T13:35:34.483Z,53.30
2024-05-09T13:38:02.181Z,52.50
2024-05-09T13:40:33.755Z,55.10
2024-05-09T13:43:03.507Z,53.00
2024-05-09T13:45:30.557Z,54.50
2024-05-09T13:47:57.628Z,53.70
2024-05-09T13:50:33.099Z,53.10
2024-05-09T13:53:02.859Z,53.60
2024-05-09T13:55:29.686Z,54.80
2024-05-09T13:57:56.764Z,55.40
2024-05-09T14:00:37.846Z,54.60
2024-05-09T14:03:10.710Z,54.40
2024-05-09T14:05:38.210Z,52.80
2024-05-09T14:08:05.704Z,55.20
2024-05-09T14:10:32.828Z,53.00
2024-05-09T14:13:00.408Z,53.90
2024-05-09T14:15:27.377Z,53.70
2024-05-09T14:17:54.769Z,55.20
2024-05-09T14:22:51.373Z,56.40
2024-05-09T14:25:18.346Z,54.80
2024-05-09T14:27:45.297Z,56.10
2024-05-09T14:30:18.612Z,55.10
2024-05-09T14:32:53.169Z,54.50
2024-05-09T14:35:20.158Z,55.80
2024-05-09T14:37:46.949Z,55.90
2024-05-09T14:40:30.359Z,54.60
2024-05-09T14:43:03.174Z,53.80
2024-05-09T14:45:30.260Z,55.20
2024-05-09T14:47:57.417Z,54.50
2024-05-09T14:50:34.396Z,54.30
2024-05-09T14:53:04.450Z,54.30
2024-05-09T14:55:31.363Z,53.80
2024-05-09T14:57:58.193Z,51.10
2024-05-09T15:00:29.067Z,52.10
2024-05-09T15:03:00.559Z,52.10
2024-05-09T15:05:27.565Z,51.80
2024-05-09T15:07:54.431Z,50.70
2024-05-09T15:10:27.523Z,50.70
2024-05-09T15:13:01.213Z,50.10
2024-05-09T15:15:28.096Z,48.70
2024-05-09T15:17:55.235Z,47.80
2024-05-09T15:20:31.004Z,49.70
2024-05-09T15:23:02.181Z,49.30
2024-05-09T15:25:29.184Z,49.60
2024-05-09T15:27:56.328Z,49.80
2024-05-09T15:30:30.330Z,50.20
2024-05-09T15:32:59.955Z,50.20
2024-05-09T15:35:27.069Z,50.80
2024-05-09T15:37:53.878Z,50.80
2024-05-09T15:40:30.592Z,50.70
2024-05-09T15:43:04.702Z,51.30
2024-05-09T15:45:32.126Z,51.60
2024-05-09T15:47:59.409Z,53.90
2024-05-09T15:50:36.200Z,52.60
2024-05-09T15:53:07.817Z,53.50
2024-05-09T15:55:35.517Z,54.20
2024-05-09T15:58:03.279Z,54.90
2024-05-09T16:00:37.562Z,54.80
2024-05-09T16:03:08.187Z,55.20
2024-05-09T16:05:35.288Z,54.20
2024-05-09T16:08:02.602Z,55.60
2024-05-09T16:10:32.944Z,55.30
2024-05-09T16:13:02.074Z,55.60
2024-05-09T16:15:29.333Z,55.90
2024-05-09T16:17:56.198Z,55.20
2024-05-09T16:22:52.809Z,57.00
2024-05-09T16:25:19.767Z,57.30
2024-05-09T16:27:46.875Z,56.30
2024-05-09T16:30:21.190Z,57.20
2024-05-09T16:32:54.984Z,54.80
2024-05-09T16:35:21.963Z,56.50
2024-05-09T16:37:49.129Z,56.50
2024-05-09T16:40:25.127Z,56.80
2024-05-09T16:43:02.830Z,56.70
2024-05-09T16:45:29.667Z,57.30
2024-05-09T16:47:56.571Z,58.60
2024-05-09T16:50:29.378Z,59.00
2024-05-09T16:52:59.800Z,57.90
2024-05-09T16:55:26.923Z,59.00
2024-05-09T16:57:54.331Z,62.30
2024-05-09T17:00:31.346Z,63.60
2024-05-09T17:03:06.975Z,63.70
2024-05-09T17:05:34.468Z,63.40
2024-05-09T17:08:01.656Z,61.90
2024-05-09T17:10:32.996Z,62.80
2024-05-09T17:13:02.471Z,62.10
2024-05-09T17:15:29.846Z,62.10
2024-05-09T17:17:56.767Z,59.90
2024-05-09T17:20:31.348Z,60.60
2024-05-09T17:23:01.742Z,58.00
2024-05-09T17:25:28.682Z,60.40
2024-05-09T17:27:55.729Z,58.30
2024-05-09T17:30:29.117Z,61.30
2024-05-09T17:33:02.305Z,61.10
2024-05-09T17:35:29.217Z,61.80
2024-05-09T17:37:56.559Z,61.80
2024-05-09T17:42:53.225Z,62.10
2024-05-09T17:45:20.641Z,61.80
2024-05-09T17:47:47.720Z,61.50
2024-05-09T17:50:21.021Z,61.70
2024-05-09T17:52:53.975Z,61.20
2024-05-09T17:55:21.310Z,62.10
2024-05-09T17:57:48.527Z,62.60
2024-05-09T18:00:24.528Z,62.70
2024-05-09T18:03:00.425Z,62.80
2024-05-09T18:05:29.076Z,62.60
2024-05-09T18:07:57.068Z,62.50
2024-05-09T18:10:30.092Z,62.80
2024-05-09T18:13:02.830Z,63.00
2024-05-09T18:15:29.645Z,63.80
2024-05-09T18:17:56.662Z,63.50
2024-05-09T18:20:32.441Z,63.30
2024-05-09T18:23:07.465Z,63.70
2024-05-09T18:25:34.330Z,63.60
2024-05-09T18:28:04.576Z,63.20
2024-05-09T18:30:34.671Z,63.50
2024-05-09T18:33:04.113Z,63.90
2024-05-09T18:35:31.427Z,64.60
2024-05-09T18:37:58.283Z,64.40
2024-05-09T18:40:31.346Z,64.70
2024-05-09T18:43:02.447Z,64.60
2024-05-09T18:45:29.288Z,65.10
2024-05-09T18:47:56.247Z,65.40
2024-05-09T18:50:32.047Z,65.20
2024-05-09T18:53:03.570Z,65.10
2024-05-09T18:55:30.342Z,65.70
2024-05-09T18:57:57.445Z,65.10
2024-05-09T19:00:33.288Z,65.70
2024-05-09T19:03:05.675Z,66.00
2024-05-09T19:05:34.863Z,65.90
2024-05-09T19:08:02.327Z,66.40
2024-05-09T19:10:34.214Z,66.20
2024-05-09T19:13:06.706Z,66.60
2024-05-09T19:15:37.841Z,66.90
2024-05-09T19:18:05.358Z,67.10
2024-05-09T19:20:35.367Z,67.20
2024-05-09T19:23:04.355Z,67.30
2024-05-09T19:25:31.920Z,67.70
2024-05-09T19:27:59.183Z,67.90
2024-05-09T19:30:34.997Z,68.10
2024-05-09T19:33:07.095Z,68.50
2024-05-09T19:35:34.153Z,67.90
2024-05-09T19:38:01.075Z,67.50
2024-05-09T19:40:32.020Z,66.90
2024-05-09T19:43:01.727Z,66.20
2024-05-09T19:45:29.234Z,65.00
2024-05-09T19:47:56.406Z,65.50
2024-05-09T19:50:32.133Z,64.80
2024-05-09T19:53:06.726Z,65.30
2024-05-09T19:55:33.872Z,64.60
2024-05-09T19:58:04.741Z,64.70
2024-05-09T20:00:37.877Z,65.40
2024-05-09T20:03:07.205Z,65.90
2024-05-09T20:05:34.729Z,66.10
2024-05-09T20:08:01.867Z,65.90
2024-05-09T20:10:32.662Z,65.70
2024-05-09T20:13:03.006Z,65.90
2024-05-09T20:15:30.109Z,65.90
2024-05-09T20:17:57.129Z,65.70
2024-05-09T20:20:32.909Z,65.50
2024-05-09T20:23:08.037Z,66.00
2024-05-09T20:25:34.813Z,66.30
2024-05-09T20:28:01.689Z,66.20
2024-05-09T20:30:32.468Z,66.30
2024-05-09T20:33:05.277Z,66.30
2024-05-09T20:35:33.685Z,66.00
2024-05-09T20:38:01.950Z,66.20
2024-05-09T20:40:34.026Z,66.40
2024-05-09T20:43:04.577Z,66.70
2024-05-09T20:45:31.671Z,67.00
2024-05-09T20:47:58.794Z,67.10
2024-05-09T20:50:35.785Z,67.10
2024-05-09T20:53:08.010Z,67.60
2024-05-09T20:55:34.741Z,68.30
2024-05-09T20:58:01.676Z,67.90
2024-05-09T21:00:35.435Z,68.20
2024-05-09T21:03:07.414Z,68.00
2024-05-09T21:05:35.162Z,68.10
2024-05-09T21:08:02.579Z,67.90
2024-05-09T21:10:32.926Z,68.40
2024-05-09T21:13:01.899Z,68.20
2024-05-09T21:15:29.433Z,67.80
2024-05-09T21:17:56.300Z,67.90
2024-05-09T21:20:28.846Z,68.20
2024-05-09T21:22:58.410Z,68.50
2024-05-09T21:25:25.289Z,68.20
2024-05-09T21:27:52.337Z,68.60
2024-05-09T21:30:28.455Z,68.40
2024-05-09T21:33:05.423Z,69.00
2024-05-09T21:35:32.267Z,69.50
2024-05-09T21:37:59.011Z,69.70
2024-05-09T21:40:33.297Z,69.80
2024-05-09T21:43:02.437Z,69.40
2024-05-09T21:45:29.541Z,69.90
2024-05-09T21:47:56.615Z,70.40
2024-05-09T21:50:31.511Z,70.00
2024-05-09T21:53:05.341Z,70.20
2024-05-09T21:55:32.072Z,70.40
2024-05-09T21:57:58.859Z,69.80
2024-05-09T22:00:32.975Z,69.70
2024-05-09T22:03:04.144Z,70.00
2024-05-09T22:05:31.153Z,69.80
2024-05-09T22:07:58.053Z,70.20
2024-05-09T22:10:30.750Z,70.60
2024-05-09T22:13:01.592Z,70.80
2024-05-09T22:15:28.570Z,70.50
2024-05-09T22:17:56.448Z,69.70
2024-05-09T22:20:32.873Z,70.60
2024-05-09T22:23:04.236Z,71.60
2024-05-09T22:25:32.162Z,72.10
2024-05-09T22:28:00.113Z,72.30
2024-05-09T22:30:35.574Z,73.20
2024-05-09T22:33:06.328Z,73.10
2024-05-09T22:35:33.401Z,73.00
2024-05-09T22:38:00.385Z,72.90
2024-05-09T22:42:56.867Z,71.90
2024-05-09T22:45:23.650Z,71.90
2024-05-09T22:47:50.632Z,72.00
2024-05-09T22:50:26.251Z,72.60
2024-05-09T22:52:54.055Z,72.60
2024-05-09T22:55:20.829Z,72.90
2024-05-09T22:57:47.703Z,73.50
2024-05-09T23:00:16.066Z,73.80
2024-05-09T23:02:43.185Z,73.00
2024-05-09T23:05:10.275Z,73.10
2024-05-09T23:07:37.214Z,72.70
2024-05-09T23:10:06.671Z,73.20
2024-05-09T23:12:38.543Z,73.40
2024-05-09T23:15:05.911Z,73.10
2024-05-09T23:17:32.797Z,73.50
2024-05-09T23:19:59.637Z,73.40
2024-05-09T23:22:26.470Z,73.90
2024-05-09T23:24:53.354Z,73.90
2024-05-09T23:27:20.095Z,74.40
2024-05-09T23:29:47.117Z,75.10
2024-05-09T23:32:13.923Z,75.30
2024-05-09T23:34:40.770Z,75.50
2024-05-09T23:37:10.677Z,75.50
2024-05-09T23:39:37.554Z,74.80
2024-05-09T23:42:04.547Z,74.30
2024-05-09T23:44:31.310Z,74.70
2024-05-09T23:46:58.132Z,74.60
2024-05-09T23:49:25.031Z,74.80
2024-05-09T23:51:51.844Z,75.50
2024-05-09T23:54:18.713Z,76.00
2024-05-09T23:56:45.512Z,76.30
2024-05-09T23:59:12.295Z,76.50
